Time;durP1;ratioP1;P1;durP2;ratioP2;P2;SDS_P1;SDS_P2;PMS_P1;PMS_P2;Temp;Humidity;BMP_temperature;BMP_pressure;BME280_temperature;BME280_humidity;BME280_pressure;Samples;Min_cycle;Max_cycle;Signal;HPM_P1;HPM_P2
2023/08/10 00:00:08;;;;;;;1.87;1.03;;;;;;;18.58;84.16;100147.13;6247484;28;20049;-72
2023/08/10 00:03:15;;;;;;;3.05;1.60;;;;;;;18.46;83.13;100152.56;6246115;28;20053;-72
2023/08/10 00:06:16;;;;;;;2.55;1.48;;;;;;;18.51;85.05;100155.63;6247247;28;20061;-72
2023/08/10 00:09:21;;;;;;;1.63;1.33;;;;;;;18.57;85.05;100154.19;6245958;28;20057;-72
2023/08/10 00:12:22;;;;;;;2.35;1.55;;;;;;;18.60;86.06;100147.81;6247253;28;20046;-72
2023/08/10 00:15:23;;;;;;;2.23;1.50;;;;;;;18.55;84.32;100145.59;6245787;28;20111;-72
2023/08/10 00:18:23;;;;;;;1.55;1.45;;;;;;;18.56;86.22;100139.34;6246358;28;20132;-72
2023/08/10 00:21:24;;;;;;;2.30;1.30;;;;;;;18.51;86.91;100134.50;6244397;28;20405;-72
2023/08/10 00:24:28;;;;;;;1.67;1.33;;;;;;;18.48;88.04;100137.41;6245482;28;20049;-72
2023/08/10 00:27:29;;;;;;;1.70;1.17;;;;;;;18.45;88.16;100131.56;6245619;28;20046;-72
2023/08/10 00:30:30;;;;;;;1.83;1.60;;;;;;;18.39;89.74;100135.63;6245657;28;20393;-72
2023/08/10 00:33:34;;;;;;;3.00;1.50;;;;;;;18.42;91.15;100129.22;6245610;28;20095;-72
2023/08/10 00:36:36;;;;;;;2.28;1.50;;;;;;;18.43;92.27;100130.88;6246408;28;20049;-72
2023/08/10 00:39:39;;;;;;;4.95;1.45;;;;;;;18.44;92.10;100132.56;6246535;28;20089;-72
2023/08/10 00:42:40;;;;;;;5.10;1.60;;;;;;;18.40;92.10;100125.88;6245284;28;20555;-72
2023/08/10 00:45:42;;;;;;;1.87;1.60;;;;;;;18.41;92.23;100131.03;6246593;28;20053;-72
2023/08/10 00:48:43;;;;;;;1.77;1.42;;;;;;;18.42;94.47;100127.41;6246164;28;20099;-72
2023/08/10 00:51:45;;;;;;;2.50;1.60;;;;;;;18.34;93.21;100127.28;6245519;28;20049;-72
2023/08/10 00:54:46;;;;;;;2.53;1.33;;;;;;;18.28;92.73;100119.94;6245108;28;20505;-72
2023/08/10 00:57:47;;;;;;;2.67;1.47;;;;;;;18.26;91.51;100122.72;6245381;28;20066;-72
2023/08/10 01:00:50;;;;;;;4.67;1.97;;;;;;;18.27;89.26;100120.91;6244887;28;20065;-72
2023/08/10 01:03:51;;;;;;;2.20;1.38;;;;;;;18.19;88.67;100126.91;6244727;28;20060;-72
2023/08/10 01:07:02;;;;;;;2.77;1.47;;;;;;;18.20;88.83;100128.56;6246240;28;20041;-72
2023/08/10 01:10:28;;;;;;;2.75;1.35;;;;;;;18.20;89.55;100130.34;6246041;28;20069;-72
2023/08/10 01:13:46;;;;;;;2.67;1.33;;;;;;;18.20;90.02;100131.22;6245007;28;20053;-72
2023/08/10 01:16:50;;;;;;;4.65;1.50;;;;;;;18.10;87.95;100133.84;6246223;28;20053;-72
2023/08/10 01:19:53;;;;;;;5.70;1.50;;;;;;;18.10;88.43;100133.03;6244560;28;20100;-72
2023/08/10 01:23:13;;;;;;;2.25;1.50;;;;;;;18.13;89.24;100130.09;6244983;28;20050;-72
2023/08/10 01:26:16;;;;;;;2.10;1.60;;;;;;;18.16;90.22;100123.69;6245893;28;20054;-72
2023/08/10 01:29:22;;;;;;;1.58;1.33;;;;;;;18.18;91.20;100122.59;6245888;28;20061;-72
2023/08/10 01:32:25;;;;;;;3.10;1.80;;;;;;;18.15;91.58;100119.41;6245910;28;20107;-72
2023/08/10 01:35:26;;;;;;;1.73;1.30;;;;;;;18.11;92.06;100117.03;6245944;28;20059;-72
2023/08/10 01:38:27;;;;;;;1.83;1.40;;;;;;;18.07;93.00;100118.28;6245606;28;20053;-72
2023/08/10 01:41:27;;;;;;;2.88;1.25;;;;;;;18.02;92.51;100115.25;6245621;28;20107;-72
2023/08/10 01:44:28;;;;;;;2.50;1.63;;;;;;;17.99;90.80;100112.03;6244587;28;20064;-72
2023/08/10 01:47:36;;;;;;;3.20;1.98;;;;;;;17.98;90.35;100123.59;6245654;28;20046;-72
2023/08/10 01:50:41;;;;;;;2.00;1.63;;;;;;;18.00;91.04;100122.47;6244477;28;20080;-72
2023/08/10 01:53:43;;;;;;;3.58;1.65;;;;;;;18.07;92.41;100120.09;6244422;28;20385;-72
2023/08/10 01:56:44;;;;;;;2.70;1.58;;;;;;;18.06;93.62;100116.63;6245655;28;20096;-72
2023/08/10 01:59:45;;;;;;;5.17;1.60;;;;;;;18.03;91.33;100111.63;6244596;28;20050;-72
2023/08/10 02:02:46;;;;;;;3.22;1.35;;;;;;;17.96;92.68;100112.34;6245624;28;20072;-72
2023/08/10 02:05:47;;;;;;;4.47;1.45;;;;;;;17.91;93.61;100110.94;6244206;28;20136;-72
2023/08/10 02:08:48;;;;;;;2.47;1.90;;;;;;;17.85;92.14;100105.38;6243600;28;20104;-72
2023/08/10 02:11:48;;;;;;;1.93;1.60;;;;;;;17.84;94.26;100103.72;6242938;28;20050;-72
2023/08/10 02:14:49;;;;;;;2.05;1.27;;;;;;;17.80;91.61;100104.94;6245334;28;20145;-72
2023/08/10 02:17:50;;;;;;;1.33;1.23;;;;;;;17.70;93.75;100107.56;6248644;28;20049;-72
2023/08/10 02:20:51;;;;;;;2.17;1.38;;;;;;;17.62;91.63;100107.41;6249584;28;20080;-72
2023/08/10 02:23:52;;;;;;;2.88;1.58;;;;;;;17.60;92.47;100106.72;6249690;28;20050;-72
2023/08/10 02:26:55;;;;;;;1.90;1.47;;;;;;;17.63;94.11;100104.66;6248250;28;20057;-72
2023/08/10 02:29:56;;;;;;;2.03;1.25;;;;;;;17.70;92.81;100110.22;6248250;28;20638;-71
2023/08/10 02:32:59;;;;;;;1.83;1.50;;;;;;;17.72;93.29;100098.53;6249599;28;20061;-72
2023/08/10 02:36:00;;;;;;;1.60;1.30;;;;;;;17.76;93.58;100100.91;6249274;28;20508;-72
2023/08/10 02:39:04;;;;;;;1.97;1.40;;;;;;;17.67;93.37;100106.03;6248050;28;20080;-71
2023/08/10 02:42:07;;;;;;;3.08;1.70;;;;;;;17.65;93.97;100110.63;6249246;28;20060;-72
2023/08/10 02:45:12;;;;;;;4.10;1.60;;;;;;;17.65;93.72;100105.34;6249137;28;20083;-72
2023/08/10 02:48:13;;;;;;;2.60;1.40;;;;;;;17.64;95.20;100110.75;6249339;28;20053;-72
2023/08/10 02:51:16;;;;;;;5.80;2.63;;;;;;;17.53;94.31;100109.91;6247757;28;20068;-71
2023/08/10 02:54:17;;;;;;;4.78;2.78;;;;;;;17.53;94.81;100120.47;6248742;28;20057;-72
2023/08/10 02:57:18;;;;;;;42.20;19.70;;;;;;;17.49;95.02;100121.72;6247516;28;20091;-72
2023/08/10 03:00:21;;;;;;;31.58;16.80;;;;;;;17.40;94.50;100121.69;6248642;28;20045;-72
2023/08/10 03:03:22;;;;;;;21.80;10.48;;;;;;;17.42;95.67;100130.28;6247897;28;20053;-72
2023/08/10 03:06:27;;;;;;;14.88;8.27;;;;;;;17.42;96.24;100125.88;6247338;28;20053;-72
2023/08/10 03:09:31;;;;;;;27.02;12.75;;;;;;;17.33;97.80;100130.13;6247337;28;20144;-71
2023/08/10 03:12:32;;;;;;;25.90;16.77;;;;;;;17.26;98.83;100133.47;6248564;28;20053;-72
2023/08/10 03:15:35;;;;;;;13.77;10.55;;;;;;;17.23;99.99;100142.47;6248780;28;20057;-72
2023/08/10 03:18:36;;;;;;;8.65;6.05;;;;;;;17.28;100.00;100137.63;6247045;28;20049;-72
2023/08/10 03:21:39;;;;;;;3.92;3.03;;;;;;;17.26;100.00;100128.19;6247070;28;20091;-72
2023/08/10 03:24:42;;;;;;;4.85;2.60;;;;;;;17.34;100.00;100149.44;6247139;28;20050;-71
2023/08/10 03:27:43;;;;;;;3.85;2.05;;;;;;;17.23;100.00;100144.28;6248023;28;20196;-72
2023/08/10 03:30:44;;;;;;;4.55;1.92;;;;;;;17.25;100.00;100135.25;6248100;28;20042;-72
2023/08/10 03:33:45;;;;;;;2.67;2.10;;;;;;;17.29;100.00;100147.19;6246620;28;20053;-72
2023/08/10 03:36:48;;;;;;;3.00;2.38;;;;;;;17.29;100.00;100146.38;6248057;28;20046;-72
2023/08/10 03:39:49;;;;;;;4.00;2.58;;;;;;;17.17;100.00;100147.44;6246570;28;20057;-72
2023/08/10 03:42:49;;;;;;;2.67;2.00;;;;;;;17.22;100.00;100154.00;6247940;28;20099;-72
2023/08/10 03:45:52;;;;;;;3.60;2.08;;;;;;;17.30;100.00;100155.97;6246596;28;20059;-71
2023/08/10 03:48:56;;;;;;;8.38;2.45;;;;;;;17.30;100.00;100161.25;6247697;28;20123;-72
2023/08/10 03:51:56;;;;;;;3.25;2.20;;;;;;;17.34;100.00;100167.91;6246948;28;20053;-72
2023/08/10 03:54:57;;;;;;;3.63;2.28;;;;;;;17.36;100.00;100162.47;6246590;28;20060;-72
2023/08/10 03:57:58;;;;;;;4.05;2.42;;;;;;;17.33;100.00;100166.22;6247054;28;20393;-72
2023/08/10 04:00:59;;;;;;;3.33;2.25;;;;;;;17.37;100.00;100161.53;6247162;28;20098;-72
2023/08/10 04:04:02;;;;;;;2.28;1.88;;;;;;;17.22;100.00;100163.72;6247118;28;20099;-72
2023/08/10 04:07:02;;;;;;;2.55;1.90;;;;;;;17.20;100.00;100166.47;6245910;28;20049;-71
2023/08/10 04:10:07;;;;;;;2.67;1.83;;;;;;;17.33;100.00;100169.69;6247251;28;20051;-71
2023/08/10 04:13:10;;;;;;;3.85;1.85;;;;;;;17.44;100.00;100165.28;6245692;28;20140;-72
2023/08/10 04:16:11;;;;;;;3.35;2.00;;;;;;;17.55;100.00;100167.81;6247086;28;20559;-72
2023/08/10 04:19:12;;;;;;;3.35;2.08;;;;;;;17.62;100.00;100170.75;6245651;28;20093;-72
2023/08/10 04:22:13;;;;;;;3.13;2.03;;;;;;;17.73;100.00;100170.63;6246702;28;20485;-72
2023/08/10 04:25:14;;;;;;;3.33;2.20;;;;;;;17.75;100.00;100162.56;6245492;28;20049;-72
2023/08/10 04:28:19;;;;;;;4.63;2.30;;;;;;;17.90;100.00;100162.06;6246701;28;20481;-72
2023/08/10 04:31:20;;;;;;;3.28;2.20;;;;;;;17.95;100.00;100164.28;6245499;28;20054;-72
2023/08/10 04:34:20;;;;;;;2.78;2.20;;;;;;;18.08;100.00;100161.38;6246785;28;20057;-73
2023/08/10 04:37:21;;;;;;;3.05;2.47;;;;;;;18.14;99.02;100171.38;6245372;28;20085;-74
2023/08/10 04:40:23;;;;;;;3.88;2.33;;;;;;;18.19;98.44;100168.31;6245255;28;20045;-72
2023/08/10 04:43:23;;;;;;;2.35;2.05;;;;;;;18.29;95.94;100169.97;6245771;28;20064;-73
2023/08/10 04:46:26;;;;;;;4.75;2.33;;;;;;;18.28;95.05;100184.16;6246662;28;20429;-73
2023/08/10 04:49:30;;;;;;;2.25;2.05;;;;;;;18.34;94.69;100180.09;6246458;28;20159;-73
2023/08/10 04:52:33;;;;;;;4.30;2.55;;;;;;;18.50;96.11;100180.38;6245330;28;20081;-73
2023/08/10 04:55:34;;;;;;;3.17;2.17;;;;;;;18.63;94.85;100184.50;6246515;28;20127;-73
2023/08/10 04:58:35;;;;;;;2.57;2.10;;;;;;;18.62;92.95;100181.03;6245222;28;20477;-73
2023/08/10 05:01:35;;;;;;;3.30;2.17;;;;;;;18.65;90.46;100183.38;6245572;28;20104;-73
2023/08/10 05:04:36;;;;;;;5.00;2.37;;;;;;;18.81;91.41;100182.00;6245257;28;20118;-73
2023/08/10 05:07:37;;;;;;;5.93;2.08;;;;;;;18.81;90.97;100182.84;6246758;28;20053;-73
2023/08/10 05:10:42;;;;;;;6.03;2.20;;;;;;;18.90;90.34;100179.34;6246237;28;20056;-73
2023/08/10 05:13:43;;;;;;;3.58;2.00;;;;;;;18.97;90.11;100190.16;6246151;28;20080;-73
2023/08/10 05:16:46;;;;;;;2.63;2.13;;;;;;;19.06;88.00;100194.56;6246387;28;20057;-73
2023/08/10 05:19:47;;;;;;;3.20;2.08;;;;;;;19.05;87.82;100192.91;6244701;28;20057;-73
2023/08/10 05:22:54;;;;;;;2.77;2.17;;;;;;;19.11;88.37;100191.50;6246253;28;20409;-73
2023/08/10 05:25:55;;;;;;;6.68;1.90;;;;;;;19.21;87.49;100194.94;6246131;28;20662;-73
2023/08/10 05:28:58;;;;;;;4.80;1.97;;;;;;;19.13;85.92;100184.28;6244184;28;20103;-73
2023/08/10 05:31:59;;;;;;;5.50;2.40;;;;;;;19.22;85.49;100190.50;6244683;28;20486;-73
2023/08/10 05:34:59;;;;;;;5.07;2.53;;;;;;;19.32;84.72;100193.91;6245815;28;20049;-73
2023/08/10 05:38:00;;;;;;;5.63;2.37;;;;;;;19.27;83.15;100190.88;6244754;28;20064;-73
2023/08/10 05:41:01;;;;;;;4.30;2.40;;;;;;;19.39;83.87;100202.09;6278080;28;20449;-73
2023/08/10 05:44:05;;;;;;;2.20;1.70;;;;;;;19.38;84.27;100187.22;6244773;28;20136;-73
2023/08/10 05:47:08;;;;;;;3.33;2.10;;;;;;;19.48;85.28;100191.47;6244503;28;20058;-73
2023/08/10 05:50:09;;;;;;;4.78;1.70;;;;;;;19.60;85.56;100193.91;6279941;28;20120;-73
2023/08/10 05:53:10;;;;;;;4.22;1.77;;;;;;;19.53;81.93;100197.13;6249319;28;20135;-73
2023/08/10 05:56:13;;;;;;;4.63;1.90;;;;;;;19.72;81.90;100205.97;6250580;28;20053;-73
2023/08/10 05:59:13;;;;;;;3.10;1.60;;;;;;;19.83;84.39;100204.91;6249267;28;20058;-73
2023/08/10 06:02:14;;;;;;;1.90;1.50;;;;;;;19.84;82.52;100202.13;6249206;28;20137;-73
2023/08/10 06:05:15;;;;;;;1.67;1.47;;;;;;;19.88;80.48;100206.16;6249060;28;20132;-73
2023/08/10 06:08:16;;;;;;;2.67;1.43;;;;;;;20.05;81.53;100201.00;6250554;28;20413;-73
2023/08/10 06:11:16;;;;;;;2.63;1.67;;;;;;;20.20;84.18;100204.81;6247920;28;20098;-73
2023/08/10 06:14:17;;;;;;;7.00;1.93;;;;;;;20.30;80.66;100210.00;6248368;28;20513;-72
2023/08/10 06:17:18;;;;;;;4.77;1.73;;;;;;;20.37;77.82;100208.41;6247351;28;20118;-73
2023/08/10 06:20:21;;;;;;;3.23;2.00;;;;;;;20.60;77.15;100206.13;6248274;28;20050;-72
2023/08/10 06:23:22;;;;;;;3.55;2.03;;;;;;;20.92;79.02;100213.47;6248501;28;20490;-73
2023/08/10 06:26:23;;;;;;;2.43;1.50;;;;;;;21.13;76.76;100199.81;6247112;28;20049;-72
2023/08/10 06:29:24;;;;;;;3.97;1.97;;;;;;;21.15;75.15;100202.31;6247153;28;20084;-72
2023/08/10 06:32:25;;;;;;;2.83;1.67;;;;;;;21.26;72.14;100209.16;6246879;28;20103;-72
2023/08/10 06:35:27;;;;;;;3.28;1.50;;;;;;;21.33;72.15;100207.53;6248305;28;20049;-72
2023/08/10 06:38:30;;;;;;;2.28;1.50;;;;;;;21.40;74.40;100210.41;6248072;28;20497;-72
2023/08/10 06:41:31;;;;;;;2.88;1.67;;;;;;;21.71;72.35;100203.53;6248058;28;20042;-72
2023/08/10 06:44:32;;;;;;;3.00;1.60;;;;;;;21.84;71.52;100216.34;6246639;28;20069;-72
2023/08/10 06:47:33;;;;;;;4.30;1.37;;;;;;;21.96;68.63;100218.72;6247837;28;20474;-72
2023/08/10 06:50:33;;;;;;;2.70;1.58;;;;;;;21.98;66.58;100208.75;6246295;28;20457;-72
2023/08/10 06:53:38;;;;;;;2.63;1.50;;;;;;;22.10;67.60;100213.56;6279594;28;20046;-72
2023/08/10 06:56:38;;;;;;;5.18;1.65;;;;;;;22.41;69.51;100212.97;6246471;28;20050;-72
2023/08/10 06:59:42;;;;;;;2.03;1.40;;;;;;;22.79;69.99;100221.22;6246377;28;20053;-74
2023/08/10 07:02:48;;;;;;;2.65;1.60;;;;;;;22.80;64.16;100206.94;6246592;28;20436;-72
2023/08/10 07:05:49;;;;;;;2.25;1.48;;;;;;;23.19;65.49;100216.03;6247375;28;20064;-73
2023/08/10 07:08:52;;;;;;;2.73;1.57;;;;;;;23.50;63.04;100216.88;6246516;28;20049;-73
2023/08/10 07:11:53;;;;;;;4.20;2.08;;;;;;;23.77;60.54;100221.94;6247211;28;20045;-74
2023/08/10 07:14:54;;;;;;;4.60;2.30;;;;;;;24.30;65.06;100226.41;6245905;28;20085;-73
2023/08/10 07:17:57;;;;;;;7.47;2.63;;;;;;;24.66;62.24;100228.44;6247220;28;20045;-73
2023/08/10 07:20:58;;;;;;;4.43;2.47;;;;;;;24.74;60.13;100235.53;6245855;28;20056;-74
2023/08/10 07:23:59;;;;;;;2.80;1.90;;;;;;;24.73;57.55;100240.06;6245897;28;20423;-73
2023/08/10 07:26:59;;;;;;;2.20;1.60;;;;;;;24.53;57.04;100246.91;6246885;28;20135;-74
2023/08/10 07:30:03;;;;;;;2.83;1.50;;;;;;;24.36;58.12;100246.19;6246943;28;20049;-73
2023/08/10 07:33:04;;;;;;;2.45;1.50;;;;;;;24.55;60.19;100250.22;6245445;28;20089;-73
2023/08/10 07:36:06;;;;;;;1.45;1.13;;;;;;;24.76;54.77;100254.88;6245437;28;20053;-73
2023/08/10 07:39:06;;;;;;;;;;;;;;;24.88;56.62;100260.59;6247043;28;20115;-73
2023/08/10 07:42:10;;;;;;;2.78;1.23;;;;;;;25.16;57.62;100252.78;6246356;28;19983;-73
2023/08/10 07:45:11;;;;;;;2.85;1.20;;;;;;;24.98;54.67;100262.97;6245248;28;20057;-74
2023/08/10 07:48:12;;;;;;;2.37;1.20;;;;;;;25.23;56.17;100263.59;6246517;28;20062;-73
2023/08/10 07:51:13;;;;;;;1.45;0.90;;;;;;;25.54;52.69;100250.03;6246264;28;20056;-74
2023/08/10 07:54:14;;;;;;;1.85;1.40;;;;;;;25.40;51.36;100259.72;6245987;28;20470;-73
2023/08/10 07:57:15;;;;;;;;;;;;;;;25.70;51.80;100259.69;6245535;28;20055;-73
2023/08/10 08:00:16;;;;;;;3.10;1.30;;;;;;;25.59;54.23;100263.66;6245979;28;19921;-73
2023/08/10 08:03:17;;;;;;;1.45;1.10;;;;;;;25.51;52.38;100272.63;6244972;28;20140;-73
2023/08/10 08:06:18;;;;;;;1.27;0.98;;;;;;;25.43;51.08;100275.38;6246396;28;20057;-73
2023/08/10 08:09:19;;;;;;;2.53;1.40;;;;;;;25.48;52.91;100280.16;6244632;28;20067;-73
2023/08/10 08:12:20;;;;;;;1.48;1.20;;;;;;;25.64;53.03;100271.94;6245599;28;20497;-73
2023/08/10 08:15:21;;;;;;;2.07;1.37;;;;;;;26.10;51.05;100268.16;6277917;28;20402;-73
2023/08/10 08:18:42;;;;;;;1.27;0.95;;;;;;;25.73;47.33;100265.47;6244639;28;20282;-73
2023/08/10 08:21:46;;;;;;;1.38;1.13;;;;;;;25.60;49.19;100269.84;6244181;28;20405;-73
2023/08/10 08:24:50;;;;;;;2.67;1.30;;;;;;;25.80;46.52;100275.41;6245558;28;20049;-73
2023/08/10 08:27:51;;;;;;;1.05;0.85;;;;;;;26.24;51.18;100269.13;6245678;28;20088;-73
2023/08/10 08:30:52;;;;;;;1.43;1.07;;;;;;;26.14;49.37;100272.94;6245455;28;20052;-73
2023/08/10 08:33:53;;;;;;;;;;;;;;;26.47;45.34;100276.97;6246079;28;20050;-73
2023/08/10 08:36:54;;;;;;;2.10;1.03;;;;;;;26.48;45.49;100279.44;6245317;28;20297;-73
2023/08/10 08:39:54;;;;;;;1.37;1.07;;;;;;;26.84;51.15;100273.19;6243929;28;20537;-73
2023/08/10 08:42:58;;;;;;;2.65;1.10;;;;;;;26.91;44.52;100271.38;6243872;28;20488;-73
2023/08/10 08:45:59;;;;;;;2.08;1.20;;;;;;;27.16;48.68;100272.75;6245049;28;20045;-73
2023/08/10 08:49:02;;;;;;;1.73;1.27;;;;;;;26.92;44.11;100270.34;6244810;28;20057;-72
2023/08/10 08:52:03;;;;;;;2.05;1.13;;;;;;;26.62;44.78;100272.38;6244689;28;20132;-73
2023/08/10 08:55:06;;;;;;;1.70;1.20;;;;;;;26.54;45.50;100273.34;6244006;28;20056;-73
2023/08/10 08:58:08;;;;;;;1.30;1.00;;;;;;;26.52;45.98;100280.72;6245453;28;20053;-73
2023/08/10 09:01:12;;;;;;;1.50;1.08;;;;;;;26.99;43.79;100274.94;6276763;28;20046;-73
2023/08/10 09:04:13;;;;;;;1.30;1.00;;;;;;;26.86;44.10;100275.66;6243573;28;20140;-73
2023/08/10 09:07:17;;;;;;;1.27;1.02;;;;;;;26.53;45.30;100276.19;6244874;28;20494;-73
2023/08/10 09:10:20;;;;;;;1.20;0.90;;;;;;;26.51;44.17;100271.03;6243594;28;20598;-72
2023/08/10 09:13:22;;;;;;;1.52;0.98;;;;;;;26.67;40.50;100272.63;6243418;28;20121;-73
2023/08/10 09:16:25;;;;;;;3.83;0.88;;;;;;;26.13;38.42;100275.81;6244836;28;20148;-73
2023/08/10 09:19:26;;;;;;;1.75;0.77;;;;;;;26.79;42.69;100274.78;6244641;28;20460;-73
2023/08/10 09:22:31;;;;;;;1.30;1.00;;;;;;;27.21;41.96;100278.38;6244714;28;20053;-72
2023/08/10 09:25:38;;;;;;;1.20;0.90;;;;;;;27.65;38.52;100279.84;6246278;28;20049;-73
2023/08/10 09:28:38;;;;;;;3.85;1.02;;;;;;;27.97;40.23;100270.31;6248780;28;20052;-73
2023/08/10 09:31:42;;;;;;;2.17;0.88;;;;;;;27.60;39.19;100274.28;6248305;28;20077;-73
2023/08/10 09:34:45;;;;;;;0.88;0.75;;;;;;;27.82;36.91;100269.59;6249560;28;20667;-73
2023/08/10 09:37:47;;;;;;;1.33;1.00;;;;;;;28.05;41.37;100267.44;6249332;28;20053;-73
2023/08/10 09:40:47;;;;;;;1.10;0.98;;;;;;;28.16;43.56;100267.88;6248231;28;20053;-73
2023/08/10 09:43:49;;;;;;;1.65;0.98;;;;;;;28.44;41.62;100265.84;6248179;28;20045;-73
2023/08/10 09:46:58;;;;;;;5.22;1.50;;;;;;;28.69;40.23;100267.94;6249064;28;20085;-73
2023/08/10 09:50:05;;;;;;;1.38;1.20;;;;;;;28.92;40.54;100264.81;6249067;28;20103;-73
2023/08/10 09:53:06;;;;;;;3.42;0.90;;;;;;;28.80;41.11;100267.28;6248849;28;20061;-73
2023/08/10 09:56:10;;;;;;;1.20;0.90;;;;;;;29.21;40.45;100265.41;6248986;28;20390;-73
2023/08/10 09:59:10;;;;;;;1.63;0.90;;;;;;;29.62;38.09;100262.34;6280731;28;20057;-73
2023/08/10 10:02:12;;;;;;;2.42;1.10;;;;;;;29.51;38.00;100269.22;6248761;28;20509;-73
2023/08/10 10:05:17;;;;;;;4.32;1.10;;;;;;;28.96;38.20;100270.59;6248700;28;20049;-74
2023/08/10 10:08:18;;;;;;;2.78;1.30;;;;;;;29.30;36.39;100262.28;6248992;28;20136;-75
2023/08/10 10:11:20;;;;;;;2.50;0.90;;;;;;;29.88;37.34;100260.63;6248634;28;20052;-74
2023/08/10 10:14:21;;;;;;;1.20;0.85;;;;;;;29.65;38.19;100267.31;6247317;28;20405;-74
2023/08/10 10:17:24;;;;;;;4.35;1.02;;;;;;;28.67;40.30;100268.13;6248571;28;20061;-74
2023/08/10 10:20:25;;;;;;;1.42;1.05;;;;;;;27.89;40.00;100267.81;6247193;28;20112;-73
2023/08/10 10:23:29;;;;;;;1.88;1.00;;;;;;;27.59;41.29;100260.03;6248372;28;20481;-73
2023/08/10 10:26:30;;;;;;;1.90;1.10;;;;;;;27.55;43.14;100264.16;6248545;28;20053;-73
2023/08/10 10:29:40;;;;;;;1.17;0.98;;;;;;;27.42;41.11;100258.72;6247037;28;20139;-74
2023/08/10 10:32:45;;;;;;;0.90;0.80;;;;;;;27.44;42.10;100257.50;6248550;28;20041;-73
2023/08/10 10:36:04;;;;;;;1.20;0.77;;;;;;;27.53;42.20;100271.56;6245826;28;20092;-73
2023/08/10 10:39:11;;;;;;;1.70;1.15;;;;;;;27.62;44.29;100274.91;6248229;28;20080;-73
2023/08/10 10:42:16;;;;;;;1.23;0.90;;;;;;;27.33;42.78;100268.78;6247838;28;20056;-74
2023/08/10 10:45:23;;;;;;;1.13;0.80;;;;;;;26.70;43.81;100264.22;6248028;28;20096;-74
2023/08/10 10:48:33;;;;;;;0.93;0.90;;;;;;;26.54;43.31;100259.97;6246529;28;20143;-73
2023/08/10 10:51:55;;;;;;;2.13;1.05;;;;;;;26.29;44.90;100258.69;6247684;28;20482;-73
2023/08/10 10:54:59;;;;;;;2.17;1.35;;;;;;;26.00;44.99;100251.63;6279682;28;20060;-74
2023/08/10 10:58:02;;;;;;;1.70;0.82;;;;;;;25.91;45.20;100262.41;6246675;28;20069;-73
2023/08/10 11:01:05;;;;;;;1.30;1.00;;;;;;;25.92;48.11;100260.56;6247629;28;20064;-74
2023/08/10 11:04:07;;;;;;;2.08;1.40;;;;;;;25.62;45.04;100259.78;6253614;28;20088;-73
2023/08/10 11:07:07;;;;;;;1.58;1.15;;;;;;;25.13;47.58;100259.31;6245214;28;20045;-73
2023/08/10 11:10:08;;;;;;;5.13;1.97;;;;;;;24.43;51.19;100252.44;6246071;28;20103;-73
2023/08/10 11:13:12;;;;;;;5.25;1.25;;;;;;;24.22;53.82;100255.78;6246025;28;20282;-73
2023/08/10 11:16:13;;;;;;;2.95;1.40;;;;;;;24.24;58.38;100263.59;6245852;28;20050;-74
2023/08/10 11:19:14;;;;;;;7.80;3.08;;;;;;;23.92;65.50;100262.78;6245874;28;20053;-73
2023/08/10 11:22:17;;;;;;;20.70;4.20;;;;;;;23.74;70.43;100266.53;6245769;28;20140;-74
2023/08/10 11:25:23;;;;;;;13.93;2.25;;;;;;;23.48;73.98;100272.13;6245748;28;20076;-74
2023/08/10 11:28:26;;;;;;;4.35;2.30;;;;;;;23.06;81.64;100251.97;6245693;28;20529;-73
2023/08/10 11:31:27;;;;;;;9.57;2.30;;;;;;;22.86;78.00;100262.13;6246959;28;20057;-73
2023/08/10 11:34:33;;;;;;;5.03;2.33;;;;;;;22.59;79.15;100247.34;6246686;28;20442;-73
2023/08/10 11:37:42;;;;;;;3.38;1.85;;;;;;;22.52;78.67;100255.16;6245769;28;20293;-72
2023/08/10 11:40:43;;;;;;;5.40;1.80;;;;;;;22.60;78.32;100253.50;6246493;28;20096;-72
2023/08/10 11:43:46;;;;;;;2.87;1.80;;;;;;;22.80;78.32;100257.47;6246484;28;20049;-72
2023/08/10 11:46:49;;;;;;;2.40;1.77;;;;;;;22.87;73.80;100252.31;6244820;28;20049;-72
2023/08/10 11:49:50;;;;;;;3.28;2.08;;;;;;;;;;6245002;28;20499;-72
2023/08/10 11:52:53;;;;;;;2.58;1.80;;;;;;;23.39;68.68;100254.53;6246440;28;20045;-71
2023/08/10 11:55:54;;;;;;;2.33;1.40;;;;;;;23.52;64.22;100251.31;6278141;28;20049;-72
2023/08/10 11:58:54;;;;;;;5.30;1.70;;;;;;;24.12;58.94;100252.53;6246324;28;20482;-72
2023/08/10 12:01:57;;;;;;;1.40;1.30;;;;;;;25.58;58.42;100248.66;6244853;28;20052;-72
2023/08/10 12:05:01;;;;;;;3.08;1.40;;;;;;;25.35;53.64;100254.13;6244793;28;20504;-72
2023/08/10 12:08:04;;;;;;;2.00;1.42;;;;;;;26.39;55.06;100248.50;6244800;28;20489;-72
2023/08/10 12:11:08;;;;;;;2.30;1.30;;;;;;;26.46;50.59;100253.88;6244927;28;20061;-72
2023/08/10 12:14:08;;;;;;;1.50;0.90;;;;;;;26.96;48.31;100252.06;6245739;28;20452;-72
2023/08/10 12:17:12;;;;;;;2.40;1.67;;;;;;;27.32;47.44;100248.38;6244741;28;20049;-72
2023/08/10 12:20:13;;;;;;;2.53;1.70;;;;;;;26.88;49.67;100253.03;6244363;28;20134;-73
2023/08/10 12:23:14;;;;;;;7.07;1.77;;;;;;;27.36;48.38;100254.97;6244536;28;20052;-73
2023/08/10 12:26:15;;;;;;;6.40;1.42;;;;;;;27.76;49.93;100251.63;6245722;28;20136;-73
2023/08/10 12:29:18;;;;;;;4.25;1.70;;;;;;;27.81;45.31;100255.38;6244152;28;20102;-73
2023/08/10 12:32:19;;;;;;;4.57;1.20;;;;;;;27.91;46.54;100252.34;6244237;28;20160;-73
2023/08/10 12:35:22;;;;;;;2.28;1.70;;;;;;;27.85;47.69;100250.44;6244069;28;20506;-73
2023/08/10 12:38:23;;;;;;;2.88;1.45;;;;;;;27.82;49.05;100259.72;6244043;28;20502;-73
2023/08/10 12:41:24;;;;;;;3.38;1.65;;;;;;;27.82;46.25;100249.00;6245169;28;20087;-73
2023/08/10 12:44:25;;;;;;;3.65;1.60;;;;;;;27.38;49.29;100249.44;6245312;28;20099;-72
2023/08/10 12:47:26;;;;;;;3.17;1.60;;;;;;;27.25;49.69;100245.66;6243963;28;20057;-72
2023/08/10 12:50:27;;;;;;;3.20;1.73;;;;;;;27.76;47.32;100246.25;6243797;28;20072;-73
2023/08/10 12:53:28;;;;;;;1.50;1.20;;;;;;;27.87;48.15;100249.22;6243780;28;20050;-73
2023/08/10 12:56:29;;;;;;;25.77;3.05;;;;;;;27.05;50.69;100255.41;6244945;28;20068;-73
2023/08/10 12:59:29;;;;;;;4.07;1.20;;;;;;;26.61;52.15;100249.34;6244408;28;20057;-73
2023/08/10 13:02:30;;;;;;;1.95;1.50;;;;;;;27.12;53.60;100246.38;6243640;28;20057;-73
2023/08/10 13:05:31;;;;;;;2.20;1.50;;;;;;;26.85;50.57;100245.41;6244812;28;20057;-73
2023/08/10 13:08:31;;;;;;;1.20;1.10;;;;;;;27.55;49.63;100248.09;6243595;28;20289;-73
2023/08/10 13:11:32;;;;;;;2.30;1.48;;;;;;;26.73;50.77;100249.63;6243801;28;20049;-73
2023/08/10 13:14:36;;;;;;;3.45;1.42;;;;;;;27.24;51.45;100248.53;6244793;28;20056;-73
2023/08/10 13:17:37;;;;;;;2.75;1.40;;;;;;;27.16;49.16;100237.94;6243725;28;20049;-73
2023/08/10 13:20:38;;;;;;;;;;;;;;;26.50;51.35;100248.00;6245025;28;20405;-73
2023/08/10 13:23:38;;;;;;;1.63;1.07;;;;;;;26.30;51.04;100242.44;6243975;28;19921;-73
2023/08/10 13:26:39;;;;;;;2.27;1.57;;;;;;;26.05;52.98;100235.84;6244635;28;20049;-73
2023/08/10 13:29:40;;;;;;;3.38;1.40;;;;;;;25.86;53.56;100247.94;6244442;28;20520;-73
2023/08/10 13:32:40;;;;;;;1.43;1.33;;;;;;;26.34;52.55;100242.91;6244696;28;20543;-73
2023/08/10 13:35:41;;;;;;;2.20;1.30;;;;;;;26.95;51.04;100242.34;6244398;28;20362;-73
2023/08/10 13:38:42;;;;;;;4.27;1.23;;;;;;;27.39;51.71;100237.72;6244653;28;20759;-73
2023/08/10 13:41:43;;;;;;;2.63;1.40;;;;;;;27.53;47.84;100239.41;6243227;28;20329;-73
2023/08/10 13:44:46;;;;;;;1.80;1.33;;;;;;;27.65;48.84;100235.09;6244316;28;20278;-73
2023/08/10 13:47:47;;;;;;;1.77;1.35;;;;;;;27.46;47.42;100234.00;6242848;28;20196;-73
2023/08/10 13:50:49;;;;;;;2.05;1.27;;;;;;;26.94;49.87;100230.81;6243221;28;20489;-74
2023/08/10 13:53:50;;;;;;;3.38;1.50;;;;;;;26.65;49.67;100234.53;6276188;28;20485;-72
2023/08/10 13:56:57;;;;;;;2.80;1.35;;;;;;;27.04;50.82;100233.16;6242951;28;20111;-73
2023/08/10 14:00:03;;;;;;;1.60;1.20;;;;;;;27.05;49.90;100218.72;6244078;28;20395;-72
2023/08/10 14:03:05;;;;;;;2.63;1.55;;;;;;;27.39;50.39;100233.16;6242858;28;20045;-73
2023/08/10 14:06:09;;;;;;;1.35;1.05;;;;;;;27.54;48.23;100235.69;6242857;28;20054;-73